Time;durP1;ratioP1;P1;durP2;ratioP2;P2;SDS_P1;SDS_P2;PMS_P1;PMS_P2;Temp;Humidity;BMP_temperature;BMP_pressure;BME280_temperature;BME280_humidity;BME280_pressure;Samples;Min_cycle;Max_cycle;Signal;HPM_P1;HPM_P2
2022/05/20 00:01:28;;;;;;;1.35;1.25;;;;;;;6.26;98.19;91923.06;5049473;28;20486;-66
2022/05/20 00:03:53;;;;;;;1.77;1.50;;;;;;;6.23;96.63;91920.94;5049489;28;20029;-66
2022/05/20 00:06:19;;;;;;;1.30;1.20;;;;;;;6.33;94.63;91920.19;5049438;28;20897;-66
2022/05/20 00:08:44;;;;;;;1.00;1.00;;;;;;;6.36;92.06;91914.38;5049603;28;20068;-66
2022/05/20 00:11:10;;;;;;;1.23;0.98;;;;;;;6.40;92.02;91914.66;5049222;28;20033;-65
2022/05/20 00:13:35;;;;;;;0.98;0.98;;;;;;;6.36;92.10;91905.66;5049314;28;20104;-66
2022/05/20 00:16:01;;;;;;;1.40;1.40;;;;;;;6.32;91.82;91913.31;5049415;28;20021;-66
2022/05/20 00:18:27;;;;;;;0.80;0.80;;;;;;;6.30;91.90;91910.91;5051073;28;20044;-66
2022/05/20 00:20:53;;;;;;;0.85;0.85;;;;;;;6.24;92.87;91914.59;5053253;28;20033;-66
2022/05/20 00:23:19;;;;;;;1.27;1.17;;;;;;;6.11;94.80;91908.97;5052899;28;20025;-66
2022/05/20 00:25:46;;;;;;;1.65;1.25;;;;;;;6.02;96.61;91919.25;5053491;28;20045;-66
2022/05/20 00:28:23;;;;;;;1.20;1.10;;;;;;;5.90;98.08;91916.00;5050451;28;20036;-66
2022/05/20 00:30:52;;;;;;;1.30;1.20;;;;;;;5.81;98.96;91925.41;5052763;28;20076;-65
2022/05/20 00:33:18;;;;;;;1.30;1.30;;;;;;;5.75;100.00;91926.44;5052739;28;20071;-66
2022/05/20 00:35:45;;;;;;;1.10;1.10;;;;;;;5.56;100.00;91918.94;5052838;28;20052;-65
2022/05/20 00:38:12;;;;;;;1.00;1.00;;;;;;;5.63;100.00;91916.88;5052650;28;20033;-66
2022/05/20 00:40:38;;;;;;;1.10;1.10;;;;;;;5.60;99.49;91917.38;5052643;28;20033;-66
2022/05/20 00:43:34;;;;;;;1.40;1.30;;;;;;;5.68;97.84;91918.72;5052572;28;20036;-65
2022/05/20 00:46:05;;;;;;;1.23;1.13;;;;;;;5.68;97.71;91919.56;5045714;28;20056;-65
2022/05/20 00:48:31;;;;;;;1.10;1.10;;;;;;;5.62;98.39;91920.56;5052450;28;20086;-65
2022/05/20 00:51:02;;;;;;;1.52;1.42;;;;;;;5.57;99.01;91922.38;5052360;28;20415;-65
2022/05/20 00:53:33;;;;;;;1.08;1.08;;;;;;;5.56;98.42;91915.50;5052261;28;20035;-65
2022/05/20 00:56:01;;;;;;;2.42;1.70;;;;;;;5.61;97.54;91915.53;5052442;28;20047;-65
2022/05/20 00:58:28;;;;;;;0.93;0.93;;;;;;;5.58;96.13;91902.84;5034315;28;20430;-67
2022/05/20 01:00:55;;;;;;;1.25;1.23;;;;;;;5.65;94.68;91914.75;5052348;28;20128;-65
2022/05/20 01:03:25;;;;;;;1.00;1.00;;;;;;;5.61;95.13;91916.31;5052144;28;20065;-65
2022/05/20 01:05:52;;;;;;;1.13;1.13;;;;;;;5.49;96.49;91920.97;5052155;28;20083;-65
2022/05/20 01:08:23;;;;;;;1.35;1.25;;;;;;;5.31;99.02;91927.44;5052134;28;20120;-65
2022/05/20 01:10:48;;;;;;;1.50;1.40;;;;;;;5.26;100.00;91937.19;5034050;28;20044;-65
2022/05/20 01:13:18;;;;;;;1.88;1.30;;;;;;;5.16;100.00;91929.97;5052017;28;20031;-65
2022/05/20 01:15:45;;;;;;;1.30;1.20;;;;;;;5.09;100.00;91930.19;5052082;28;20048;-65
2022/05/20 01:18:12;;;;;;;1.10;1.10;;;;;;;5.07;100.00;91923.56;5051876;28;20446;-65
2022/05/20 01:20:42;;;;;;;0.93;0.93;;;;;;;5.07;100.00;91927.00;5051882;28;20036;-65
2022/05/20 01:23:19;;;;;;;1.20;1.20;;;;;;;5.05;100.00;91923.81;5051685;28;20037;-65
2022/05/20 01:25:54;;;;;;;1.40;1.30;;;;;;;5.02;100.00;91921.66;5051738;28;20775;-65
2022/05/20 01:28:21;;;;;;;1.13;1.13;;;;;;;5.01;100.00;91922.72;5049645;28;20040;-66
2022/05/20 01:31:03;;;;;;;1.40;1.30;;;;;;;5.02;100.00;91924.28;5051674;28;20049;-65
2022/05/20 01:33:36;;;;;;;1.10;1.10;;;;;;;5.03;100.00;91911.91;5033055;28;20047;-65
2022/05/20 01:36:03;;;;;;;;;;;;;;;5.04;100.00;91916.94;5052120;28;20041;-66
2022/05/20 01:38:29;;;;;;;1.17;1.13;;;;;;;5.01;100.00;91914.78;5051524;28;20020;-66
2022/05/20 01:41:00;;;;;;;1.13;1.13;;;;;;;5.01;100.00;91921.91;5051544;28;20112;-65
2022/05/20 01:43:51;;;;;;;1.30;1.20;;;;;;;4.86;100.00;91927.84;5051367;28;20464;-65
2022/05/20 01:46:33;;;;;;;1.20;1.20;;;;;;;4.81;100.00;91914.63;5048971;28;20554;-66
2022/05/20 01:49:55;;;;;;;1.20;1.20;;;;;;;4.79;100.00;91919.34;5049297;28;20048;-65
2022/05/20 01:52:50;;;;;;;1.00;1.00;;;;;;;4.77;100.00;91911.69;4949704;29;20054;-66
2022/05/20 01:55:26;;;;;;;1.17;1.17;;;;;;;4.70;100.00;91892.63;4951185;29;20489;-66
2022/05/20 01:58:12;;;;;;;1.05;1.05;;;;;;;4.86;98.75;91912.00;5024444;28;20048;-65
2022/05/20 02:00:41;;;;;;;1.10;1.10;;;;;;;4.95;95.84;91915.00;5049261;28;20060;-66
2022/05/20 02:03:35;;;;;;;1.75;1.30;;;;;;;4.98;94.30;91914.50;5050995;28;20074;-66
2022/05/20 02:06:10;;;;;;;1.00;1.00;;;;;;;5.03;93.37;91909.25;5049486;28;20029;-66
2022/05/20 02:08:51;;;;;;;1.23;1.13;;;;;;;4.96;94.80;91917.41;5048741;28;20056;-66
2022/05/20 02:11:29;;;;;;;1.10;1.10;;;;;;;4.96;93.63;91916.59;5049009;28;20032;-66
2022/05/20 02:14:39;;;;;;;1.40;1.30;;;;;;;4.89;93.18;91903.63;5048484;28;20013;-66
2022/05/20 02:17:33;;;;;;;1.50;1.30;;;;;;;4.96;92.88;91911.31;5021275;28;20106;-66
2022/05/20 02:20:08;;;;;;;;;;;;;;;4.91;92.59;91912.09;5049281;28;20032;-66
2022/05/20 02:22:40;;;;;;;1.15;1.10;;;;;;;4.86;92.62;91917.28;5048406;28;19921;-66
2022/05/20 02:25:10;;;;;;;1.27;1.25;;;;;;;4.86;90.88;91919.13;5050676;28;20028;-66
2022/05/20 02:27:42;;;;;;;1.10;1.10;;;;;;;4.87;89.81;91915.44;5048180;28;20049;-66
2022/05/20 02:30:13;;;;;;;0.98;0.98;;;;;;;4.86;89.33;91922.56;5050692;28;20848;-65
2022/05/20 02:32:46;;;;;;;1.00;1.00;;;;;;;4.92;87.63;91921.59;5048739;28;20785;-65
2022/05/20 02:35:12;;;;;;;1.00;1.00;;;;;;;5.00;86.64;91917.69;5051659;28;20037;-65
2022/05/20 02:37:39;;;;;;;1.05;1.05;;;;;;;4.99;87.66;91916.09;5051906;28;20496;-65
2022/05/20 02:40:10;;;;;;;1.55;1.45;;;;;;;4.91;87.86;91922.63;5051350;28;20072;-66
2022/05/20 02:42:35;;;;;;;1.00;1.00;;;;;;;4.92;87.98;91912.88;5051618;28;20124;-66
2022/05/20 02:45:02;;;;;;;3.50;1.20;;;;;;;4.85;89.06;91915.69;5051504;28;20114;-66
2022/05/20 02:47:33;;;;;;;1.05;1.05;;;;;;;4.75;89.76;91920.88;5051703;28;20418;-65
2022/05/20 02:50:00;;;;;;;0.90;0.90;;;;;;;4.73;90.38;91913.22;5051481;28;20071;-66
2022/05/20 02:52:27;;;;;;;1.00;1.00;;;;;;;4.71;90.18;91917.13;5051685;28;20029;-66
2022/05/20 02:54:52;;;;;;;1.23;1.13;;;;;;;4.71;91.15;91920.56;5051512;28;20033;-66
2022/05/20 02:57:18;;;;;;;1.48;1.38;;;;;;;4.43;91.28;91882.09;5051481;28;20139;-66
2022/05/20 03:05:14;;;;;;;1.00;1.00;;;;;;;4.60;91.34;91912.81;5051352;28;20095;-66
2022/05/20 03:07:40;;;;;;;1.17;1.13;;;;;;;4.61;91.63;91903.88;5051337;28;20079;-65
2022/05/20 03:10:06;;;;;;;1.00;1.00;;;;;;;4.59;92.09;91912.03;5050655;28;20445;-64
2022/05/20 03:12:32;;;;;;;1.10;1.10;;;;;;;4.58;92.31;91910.44;5050180;28;20021;-65
2022/05/20 03:14:58;;;;;;;1.08;1.08;;;;;;;4.46;92.85;91899.25;5049927;28;20033;-65
2022/05/20 03:17:23;;;;;;;1.23;1.20;;;;;;;4.59;92.34;91921.78;5049704;28;20070;-66
2022/05/20 03:19:49;;;;;;;1.20;1.20;;;;;;;4.53;91.97;91909.56;5032245;28;20116;-66
2022/05/20 03:22:14;;;;;;;0.95;0.95;;;;;;;4.62;91.61;91916.00;5049889;28;20099;-65
2022/05/20 03:24:41;;;;;;;1.02;1.02;;;;;;;4.65;91.50;91910.22;5049641;28;20031;-65
2022/05/20 03:27:07;;;;;;;2.25;1.38;;;;;;;4.61;92.06;91903.88;5041543;28;20053;-65
2022/05/20 03:29:32;;;;;;;1.30;1.20;;;;;;;4.64;91.67;91908.66;5044940;28;20078;-65
2022/05/20 03:31:58;;;;;;;1.08;1.00;;;;;;;4.69;91.34;91903.41;5051099;28;20033;-66
2022/05/20 03:34:24;;;;;;;1.13;1.13;;;;;;;4.65;90.30;91912.88;5045578;28;20087;-66
2022/05/20 03:36:50;;;;;;;1.40;1.30;;;;;;;4.72;89.92;91914.25;5040839;28;20087;-65
2022/05/20 03:39:19;;;;;;;1.58;1.00;;;;;;;4.82;88.16;91913.56;5035966;28;20030;-66
2022/05/20 03:41:45;;;;;;;1.20;1.10;;;;;;;4.87;86.86;91908.34;5041612;28;20029;-65
2022/05/20 03:44:12;;;;;;;1.10;1.10;;;;;;;5.00;84.92;91915.84;5047713;28;20057;-65
2022/05/20 03:46:44;;;;;;;3.38;1.17;;;;;;;4.98;85.12;91902.13;5036473;28;20079;-65
2022/05/20 03:49:10;;;;;;;0.85;0.85;;;;;;;5.08;84.26;91906.69;5038848;28;20376;-64
2022/05/20 03:51:37;;;;;;;1.10;1.00;;;;;;;5.04;84.21;91910.84;5041476;28;20059;-65
2022/05/20 03:54:04;;;;;;;0.80;0.80;;;;;;;5.10;83.97;91918.56;5040276;28;20474;-64
2022/05/20 03:56:30;;;;;;;1.25;1.10;;;;;;;5.16;83.40;91916.78;5035326;28;20041;-65
2022/05/20 03:58:55;;;;;;;1.58;1.10;;;;;;;5.21;82.79;91923.94;5035003;28;20033;-66
2022/05/20 04:04:05;;;;;;;1.00;1.00;;;;;;;5.44;81.38;91923.59;5034833;28;20036;-66
2022/05/20 04:06:31;;;;;;;0.90;0.90;;;;;;;5.49;80.84;91920.19;5034574;28;20033;-66
2022/05/20 04:08:56;;;;;;;1.00;1.00;;;;;;;5.66;79.66;91932.19;5034476;28;20065;-66
2022/05/20 04:11:27;;;;;;;1.17;1.10;;;;;;;5.75;78.99;91929.09;5034484;28;20095;-66
2022/05/20 04:13:53;;;;;;;1.13;1.10;;;;;;;5.88;77.60;91939.22;5037061;28;20036;-66
2022/05/20 04:16:18;;;;;;;1.10;1.10;;;;;;;5.88;77.36;91941.84;5037194;28;20116;-68
2022/05/20 04:18:44;;;;;;;1.08;1.08;;;;;;;5.91;77.64;91944.81;5034560;28;20144;-66
2022/05/20 04:21:12;;;;;;;1.42;1.17;;;;;;;6.03;76.89;91934.06;5034522;28;20120;-66
2022/05/20 04:23:37;;;;;;;1.58;1.38;;;;;;;6.05;76.22;91942.50;5034343;28;20040;-66
2022/05/20 04:26:03;;;;;;;1.25;1.20;;;;;;;6.21;75.44;91938.91;5034364;28;20431;-66
2022/05/20 04:28:29;;;;;;;1.35;1.25;;;;;;;6.32;75.09;91939.75;5034449;28;20112;-66
2022/05/20 04:31:00;;;;;;;1.10;1.00;;;;;;;6.50;73.33;91935.84;5034338;28;20108;-66
2022/05/20 04:33:27;;;;;;;1.30;1.10;;;;;;;6.64;72.34;91939.59;5034226;28;20556;-66
2022/05/20 04:35:53;;;;;;;3.92;1.10;;;;;;;6.75;71.88;91943.84;5034472;28;20033;-66
2022/05/20 04:38:19;;;;;;;1.65;1.30;;;;;;;6.97;70.53;91940.22;5034665;28;20131;-66
2022/05/20 04:40:45;;;;;;;0.90;0.90;;;;;;;7.18;69.16;91936.56;5034185;28;20128;-67
2022/05/20 04:48:38;;;;;;;1.30;1.20;;;;;;;7.46;65.89;91917.53;5034373;28;20116;-67
2022/05/20 04:51:04;;;;;;;0.90;0.90;;;;;;;7.69;64.22;91937.34;5033868;28;20562;-66
2022/05/20 04:56:13;;;;;;;1.00;1.00;;;;;;;7.95;63.32;91940.00;5034188;28;20037;-66
2022/05/20 04:58:39;;;;;;;3.05;1.10;;;;;;;8.07;62.84;91943.97;5033720;28;20029;-66
2022/05/20 05:01:04;;;;;;;1.02;1.02;;;;;;;8.20;62.40;91950.53;5033948;28;20084;-66
2022/05/20 05:03:30;;;;;;;1.65;1.17;;;;;;;8.30;62.83;91947.06;5032646;28;20140;-66
2022/05/20 05:05:55;;;;;;;1.20;1.10;;;;;;;8.47;62.93;91952.88;5033677;28;20420;-66
2022/05/20 05:08:21;;;;;;;1.00;1.00;;;;;;;8.59;62.72;91945.44;5033644;28;20045;-66
2022/05/20 05:10:48;;;;;;;1.10;1.10;;;;;;;8.83;62.21;91956.19;5033472;28;20022;-66
2022/05/20 05:13:15;;;;;;;0.93;0.93;;;;;;;8.88;62.87;91948.22;5033323;28;20033;-66
2022/05/20 05:15:46;;;;;;;1.30;1.20;;;;;;;9.09;63.04;91948.13;5033403;28;20092;-66
2022/05/20 05:18:16;;;;;;;1.40;1.30;;;;;;;9.29;64.03;91938.16;5033416;28;20029;-66
2022/05/20 05:20:46;;;;;;;2.55;1.42;;;;;;;9.56;66.52;91942.25;5033313;28;20030;-66
2022/05/20 05:23:12;;;;;;;1.60;1.30;;;;;;;9.85;67.33;91951.03;5033225;28;20435;-66
2022/05/20 05:25:38;;;;;;;1.67;1.20;;;;;;;10.52;67.42;91948.56;5033107;28;20396;-66
2022/05/20 05:28:05;;;;;;;2.67;1.33;;;;;;;13.74;60.67;91948.34;5033107;28;20025;-66
2022/05/20 05:30:31;;;;;;;5.72;2.63;;;;;;;17.86;51.43;91955.47;5033300;28;20128;-65
2022/05/20 05:32:56;;;;;;;2.42;1.70;;;;;;;20.14;46.90;91951.53;5032687;28;20104;-65
2022/05/20 05:35:26;;;;;;;2.10;1.83;;;;;;;22.15;41.57;91965.22;5033018;28;20526;-65
2022/05/20 05:37:52;;;;;;;4.13;2.75;;;;;;;24.28;38.28;91951.19;5033382;28;20064;-66
2022/05/20 05:40:23;;;;;;;3.92;2.22;;;;;;;26.04;35.42;91961.69;5033175;28;20045;-68
2022/05/20 05:42:49;;;;;;;3.85;2.10;;;;;;;26.34;34.12;91971.59;5032985;28;20048;-70
2022/05/20 05:45:19;;;;;;;2.42;1.85;;;;;;;27.02;33.97;91961.88;5032982;28;20487;-69
2022/05/20 05:47:51;;;;;;;5.20;2.25;;;;;;;27.67;32.39;91966.31;5032500;28;20096;-69
2022/05/20 05:50:17;;;;;;;3.00;1.50;;;;;;;29.40;29.44;91960.91;5033005;28;20034;-70
2022/05/20 05:52:42;;;;;;;2.45;1.80;;;;;;;29.29;29.16;91963.69;5032803;28;20025;-72
2022/05/20 05:55:08;;;;;;;1.45;1.35;;;;;;;28.87;29.46;91968.16;5032915;28;20029;-70
2022/05/20 05:57:34;;;;;;;1.40;1.30;;;;;;;29.60;28.97;91964.72;5032806;28;20029;-68
2022/05/20 05:59:59;;;;;;;4.03;2.38;;;;;;;31.51;26.98;91968.78;5032688;28;20403;-68
2022/05/20 06:02:25;;;;;;;4.63;2.80;;;;;;;31.64;26.13;91969.78;5032589;28;20022;-68
2022/05/20 06:04:51;;;;;;;4.90;2.20;;;;;;;30.92;26.78;91971.84;5032662;28;20034;-68
2022/05/20 06:07:18;;;;;;;6.53;2.00;;;;;;;30.74;26.48;91972.03;5032860;28;20398;-68
2022/05/20 06:09:45;;;;;;;4.88;1.13;;;;;;;32.50;25.37;91968.50;5032436;28;20030;-68
2022/05/20 06:12:12;;;;;;;1.90;1.50;;;;;;;32.38;25.63;91964.41;5032687;28;20083;-69
2022/05/20 06:14:38;;;;;;;3.17;1.90;;;;;;;33.00;25.87;91966.44;5032713;28;20037;-68
2022/05/20 06:17:04;;;;;;;1.60;1.50;;;;;;;34.32;23.91;91962.81;5032358;28;20116;-68
2022/05/20 06:19:30;;;;;;;5.03;2.03;;;;;;;33.75;24.55;91961.34;5032296;28;20113;-69
2022/05/20 06:21:55;;;;;;;3.72;1.98;;;;;;;34.53;24.07;91967.84;5032559;28;20027;-68
2022/05/20 06:24:21;;;;;;;3.72;1.92;;;;;;;32.70;25.53;91953.59;5032168;28;20494;-71
2022/05/20 06:26:46;;;;;;;6.95;2.38;;;;;;;30.03;27.60;91953.44;5032054;28;20045;-66
2022/05/20 06:29:12;;;;;;;3.15;1.75;;;;;;;31.26;26.38;91961.66;5032083;28;20084;-65
2022/05/20 06:31:38;;;;;;;4.15;2.45;;;;;;;33.02;26.05;91957.75;5032054;28;20102;-66
2022/05/20 06:34:03;;;;;;;9.95;3.35;;;;;;;34.78;24.30;91962.44;5032158;28;20522;-66
2022/05/20 06:41:58;;;;;;;6.72;2.97;;;;;;;32.69;25.44;91960.28;5032196;28;20036;-65
2022/05/20 06:44:24;;;;;;;7.47;3.33;;;;;;;32.57;24.91;91960.13;5032258;28;20079;-65
2022/05/20 06:46:50;;;;;;;12.93;4.32;;;;;;;33.35;23.75;91958.66;5031887;28;20113;-66
2022/05/20 06:49:16;;;;;;;7.53;3.35;;;;;;;30.91;25.14;91959.28;5031711;28;20022;-66
2022/05/20 06:51:41;;;;;;;9.52;2.92;;;;;;;31.63;25.30;91954.47;5031611;28;20049;-65
2022/05/20 06:54:09;;;;;;;6.45;2.47;;;;;;;33.74;22.85;91946.78;5031537;28;20029;-66
2022/05/20 06:56:36;;;;;;;3.28;2.10;;;;;;;35.61;20.44;91939.63;5031507;28;20043;-66
2022/05/20 06:59:03;;;;;;;9.05;2.25;;;;;;;36.14;20.22;91955.88;5031827;28;20064;-65
2022/05/20 07:01:29;;;;;;;3.53;1.60;;;;;;;36.99;19.00;91950.28;5031913;28;20472;-66
2022/05/20 07:03:55;;;;;;;2.45;1.48;;;;;;;37.83;18.77;91955.22;5031490;28;20052;-66
2022/05/20 07:06:21;;;;;;;4.97;1.30;;;;;;;37.34;18.63;91951.03;5031523;28;20120;-67
2022/05/20 07:08:49;;;;;;;10.02;1.63;;;;;;;35.83;18.85;91948.06;5031502;28;20087;-66
2022/05/20 07:11:20;;;;;;;1.35;1.25;;;;;;;33.83;20.21;91946.19;5031368;28;20029;-67
2022/05/20 07:13:48;;;;;;;1.80;1.45;;;;;;;34.05;20.08;91944.50;5031513;28;20112;-66
2022/05/20 07:16:15;;;;;;;3.95;1.50;;;;;;;33.51;19.88;91944.16;5031127;28;20030;-66
2022/05/20 07:18:41;;;;;;;6.82;2.00;;;;;;;35.01;19.06;91953.16;5031263;28;20033;-67
2022/05/20 07:21:06;;;;;;;1.42;1.33;;;;;;;34.87;19.83;91952.78;5031394;28;20029;-66
2022/05/20 07:23:33;;;;;;;8.38;1.92;;;;;;;34.68;20.39;91960.72;5031094;28;20469;-65
2022/05/20 07:25:59;;;;;;;5.55;2.10;;;;;;;34.46;19.67;91956.97;5031119;28;20088;-66
2022/05/20 07:28:25;;;;;;;1.83;1.60;;;;;;;32.42;21.11;91949.34;5030884;28;20025;-66
2022/05/20 07:30:51;;;;;;;7.45;2.95;;;;;;;33.90;20.70;91951.56;5031199;28;20056;-66
2022/05/20 07:33:16;;;;;;;1.30;1.20;;;;;;;33.72;21.61;91953.94;5031128;28;20454;-67
2022/05/20 07:35:42;;;;;;;2.03;1.50;;;;;;;36.61;18.42;91950.38;5031229;28;20643;-66
2022/05/20 07:38:08;;;;;;;1.27;1.13;;;;;;;35.88;18.92;91944.00;5031180;28;20037;-66
2022/05/20 07:40:35;;;;;;;5.13;1.30;;;;;;;36.33;18.96;91948.56;5031029;28;20030;-66
2022/05/20 07:43:01;;;;;;;7.05;1.50;;;;;;;37.74;16.79;91942.84;5030943;28;20108;-67
2022/05/20 07:45:26;;;;;;;1.83;1.40;;;;;;;36.69;18.65;91942.59;5020924;28;20112;-65
2022/05/20 07:47:52;;;;;;;17.60;3.80;;;;;;;39.07;16.73;91955.00;5030885;28;20021;-66
2022/05/20 07:50:18;;;;;;;2.78;1.77;;;;;;;40.58;15.90;91945.72;5030780;28;20678;-66
2022/05/20 07:55:38;;;;;;;1.25;1.10;;;;;;;35.72;17.63;91942.09;5031032;28;20056;-65
2022/05/20 07:58:11;;;;;;;1.75;1.08;;;;;;;33.76;18.74;91940.81;5030800;28;20034;-65
2022/05/20 08:00:37;;;;;;;3.45;1.75;;;;;;;36.04;18.29;91943.88;5030245;28;20479;-66
2022/05/20 08:03:03;;;;;;;1.63;1.30;;;;;;;35.01;17.99;91944.09;5030517;28;20033;-66
2022/05/20 08:05:31;;;;;;;4.70;1.23;;;;;;;36.01;17.95;91942.00;5030649;28;20026;-65
2022/05/20 08:08:01;;;;;;;1.15;1.08;;;;;;;35.95;18.67;91944.53;5030628;28;20029;-65
2022/05/20 08:10:29;;;;;;;1.20;1.00;;;;;;;34.75;18.02;91937.66;5030581;28;20030;-66
2022/05/20 08:12:56;;;;;;;5.65;1.23;;;;;;;34.80;17.79;91937.13;5030419;28;20056;-66
2022/05/20 08:15:22;;;;;;;1.15;1.00;;;;;;;35.82;17.58;91932.69;5030283;28;20029;-66
2022/05/20 08:17:47;;;;;;;1.20;1.10;;;;;;;35.59;18.27;91931.00;5030599;28;20103;-67
2022/05/20 08:20:21;;;;;;;0.93;0.82;;;;;;;32.68;19.93;91928.44;5030333;28;20028;-67
2022/05/20 08:22:47;;;;;;;2.35;1.40;;;;;;;32.70;18.12;91931.53;5030482;28;20026;-67
2022/05/20 08:25:13;;;;;;;8.98;1.27;;;;;;;33.23;19.65;91917.91;5030575;28;20033;-66
2022/05/20 08:27:38;;;;;;;1.63;1.13;;;;;;;31.92;19.62;91915.56;5030331;28;20102;-66
2022/05/20 08:30:14;;;;;;;1.15;1.05;;;;;;;32.67;18.93;91910.34;5030098;28;20020;-66
2022/05/20 08:32:40;;;;;;;3.42;0.95;;;;;;;33.88;18.69;91907.06;5030452;28;20030;-66
2022/05/20 08:35:07;;;;;;;1.45;1.25;;;;;;;34.73;18.71;91910.47;5030638;28;20037;-66
2022/05/20 08:37:37;;;;;;;6.80;1.92;;;;;;;35.58;17.18;91909.28;5030256;28;20388;-65
2022/05/20 08:40:04;;;;;;;3.53;1.10;;;;;;;32.25;19.89;91903.59;5032811;28;20083;-66
2022/05/20 08:42:31;;;;;;;2.70;1.58;;;;;;;30.86;21.12;91896.56;5033904;28;20033;-66
2022/05/20 08:44:58;;;;;;;2.05;1.25;;;;;;;30.61;20.33;91914.09;5033598;28;20025;-64
2022/05/20 08:47:36;;;;;;;4.60;1.30;;;;;;;30.81;22.65;91897.03;5033882;28;20064;-67
2022/05/20 08:50:06;;;;;;;12.32;1.70;;;;;;;32.37;21.73;91892.00;5033899;28;20025;-66
2022/05/20 08:52:31;;;;;;;3.00;1.20;;;;;;;30.45;21.10;91900.13;5034052;28;20060;-67
2022/05/20 08:54:58;;;;;;;1.13;1.08;;;;;;;31.11;21.19;91897.03;5015952;28;20561;-68
2022/05/20 08:57:28;;;;;;;1.83;1.00;;;;;;;33.73;21.21;91892.00;5033704;28;20076;-68
2022/05/20 08:59:54;;;;;;;2.70;1.90;;;;;;;32.70;22.77;91892.97;5033492;28;20021;-67
2022/05/20 09:02:20;;;;;;;1.58;1.08;;;;;;;33.01;21.54;91893.53;5033707;28;20155;-67
2022/05/20 09:04:46;;;;;;;2.17;1.40;;;;;;;32.78;22.00;91888.84;5033797;28;20463;-67
2022/05/20 09:07:14;;;;;;;1.10;1.00;;;;;;;31.34;22.85;91892.81;5033690;28;20037;-66
2022/05/20 09:09:55;;;;;;;5.70;1.23;;;;;;;31.06;24.24;91891.19;5033938;28;20036;-67
2022/05/20 09:12:39;;;;;;;1.23;1.13;;;;;;;31.43;22.65;91882.88;5033581;28;20029;-67
2022/05/20 09:18:02;;;;;;;3.88;1.70;;;;;;;32.21;21.57;91886.38;5033854;28;20076;-67
2022/05/20 09:20:28;;;;;;;1.27;1.08;;;;;;;32.69;21.25;91882.34;5033667;28;20026;-67
2022/05/20 09:23:01;;;;;;;4.88;1.00;;;;;;;30.92;21.30;91873.69;5033340;28;20033;-67
2022/05/20 09:25:32;;;;;;;0.88;0.88;;;;;;;32.40;21.20;91871.88;5033164;28;20411;-67
2022/05/20 09:28:38;;;;;;;1.10;1.00;;;;;;;29.02;23.25;91867.53;5033445;28;20102;-67
2022/05/20 09:31:32;;;;;;;2.53;1.48;;;;;;;31.26;22.11;91859.94;5033224;28;20661;-67
2022/05/20 09:34:25;;;;;;;1.08;0.98;;;;;;;31.75;20.77;91859.63;5021572;28;20533;-66
2022/05/20 09:36:58;;;;;;;1.23;1.13;;;;;;;32.83;20.88;91851.78;5033112;28;20083;-67
2022/05/20 09:39:34;;;;;;;1.08;0.98;;;;;;;33.50;20.05;91849.56;5033127;28;20045;-67
2022/05/20 09:42:04;;;;;;;1.42;1.20;;;;;;;33.43;19.39;91846.94;5033042;28;20115;-68
2022/05/20 09:44:51;;;;;;;0.90;0.90;;;;;;;31.72;20.59;91852.13;5033114;28;20034;-67
2022/05/20 09:47:26;;;;;;;1.25;1.15;;;;;;;33.58;20.84;91856.44;5033007;28;20043;-68
2022/05/20 09:49:57;;;;;;;1.88;0.90;;;;;;;33.20;18.94;91847.84;5032338;28;20026;-68
2022/05/20 09:52:22;;;;;;;4.85;1.90;;;;;;;33.29;18.54;91842.50;5032654;28;20030;-67
2022/05/20 09:54:59;;;;;;;1.40;1.30;;;;;;;32.83;19.43;91835.25;5032712;28;20032;-68
2022/05/20 09:57:34;;;;;;;1.10;1.00;;;;;;;33.71;18.59;91847.50;5032647;28;20116;-67
2022/05/20 10:00:19;;;;;;;2.72;1.40;;;;;;;31.45;17.85;91832.94;5032305;28;20036;-67
2022/05/20 10:02:54;;;;;;;1.10;1.00;;;;;;;30.13;19.78;91840.06;5032573;28;20033;-68
2022/05/20 10:05:51;;;;;;;4.47;1.40;;;;;;;29.99;19.12;91837.44;5032852;28;20100;-67
2022/05/20 10:08:32;;;;;;;5.47;1.05;;;;;;;30.23;19.25;91838.41;4961852;28;20583;-68
2022/05/20 10:11:08;;;;;;;1.05;1.05;;;;;;;29.71;17.28;91836.53;5032417;28;20025;-67
2022/05/20 10:13:36;;;;;;;0.60;0.60;;;;;;;30.62;15.52;91838.00;5032467;28;20037;-67
2022/05/20 10:16:29;;;;;;;1.45;0.70;;;;;;;32.17;17.70;91827.81;5032405;28;20048;-67
2022/05/20 10:19:05;;;;;;;2.05;1.85;;;;;;;29.87;18.92;91824.25;5032353;28;20060;-68
2022/05/20 10:22:03;;;;;;;2.95;2.00;;;;;;;28.83;19.92;91832.38;5032087;28;20080;-67
2022/05/20 10:24:38;;;;;;;0.70;0.70;;;;;;;27.97;19.28;91829.19;4991348;28;20048;-67
2022/05/20 10:27:40;;;;;;;1.13;1.10;;;;;;;31.49;18.25;91825.41;5031681;28;20507;-67
2022/05/20 10:33:09;;;;;;;2.10;1.50;;;;;;;30.13;19.86;91823.59;5032081;28;20036;-68
2022/05/20 10:36:11;;;;;;;1.60;1.10;;;;;;;32.84;19.75;91814.75;5031833;28;20026;-68
2022/05/20 10:38:54;;;;;;;1.50;1.08;;;;;;;34.22;19.48;91819.00;5031877;28;20034;-69
2022/05/20 10:41:31;;;;;;;1.23;0.90;;;;;;;29.91;22.32;91812.03;5031812;28;20018;-68
2022/05/20 10:50:11;;;;;;;1.38;0.70;;;;;;;29.71;21.71;91813.81;5032142;28;20045;-68
2022/05/20 10:52:45;;;;;;;3.30;1.38;;;;;;;29.69;22.70;91811.47;5031580;28;20026;-68
2022/05/20 10:55:25;;;;;;;2.60;0.75;;;;;;;29.42;22.99;91810.50;5031713;28;20029;-69
2022/05/20 10:57:53;;;;;;;1.88;0.90;;;;;;;31.98;18.66;91803.78;5031787;28;20025;-68
2022/05/20 11:00:25;;;;;;;0.70;0.70;;;;;;;34.61;16.48;91802.59;5031595;28;20034;-68
2022/05/20 11:03:35;;;;;;;0.60;0.60;;;;;;;33.13;18.11;91792.81;5030878;28;20067;-67
2022/05/20 11:06:19;;;;;;;1.00;1.00;;;;;;;32.04;20.11;91802.88;5021070;28;20080;-67
2022/05/20 11:09:12;;;;;;;1.00;0.90;;;;;;;31.02;22.09;91789.56;5031453;28;20025;-67
2022/05/20 11:11:56;;;;;;;12.55;1.52;;;;;;;30.04;19.96;91795.84;5031653;28;20103;-67
2022/05/20 11:14:42;;;;;;;1.67;1.05;;;;;;;30.52;22.31;91792.94;5031379;28;20124;-71
2022/05/20 11:17:29;;;;;;;2.45;1.63;;;;;;;30.39;23.37;91775.47;5031424;28;20025;-72
2022/05/20 11:20:13;;;;;;;3.05;0.90;;;;;;;30.67;20.87;91777.88;5031319;28;20032;-72
2022/05/20 11:23:28;;;;;;;3.67;1.35;;;;;;;29.37;21.79;91773.34;5031251;28;20029;-71
2022/05/20 11:26:15;;;;;;;1.35;0.80;;;;;;;31.88;20.46;91773.28;4950532;29;20458;-71
2022/05/20 11:28:52;;;;;;;2.15;1.30;;;;;;;30.88;20.86;91757.56;5026132;28;20049;-72
2022/05/20 11:31:30;;;;;;;2.30;1.00;;;;;;;32.28;20.16;91761.53;5031194;28;20057;-72
2022/05/20 11:34:18;;;;;;;3.28;1.83;;;;;;;33.47;19.99;91755.84;5031083;28;20411;-71
2022/05/20 11:37:09;;;;;;;2.00;0.88;;;;;;;32.35;20.39;91748.44;5030638;28;20041;-71
2022/05/20 11:39:55;;;;;;;0.95;0.85;;;;;;;31.31;20.34;91740.44;5013281;28;20061;-71
2022/05/20 11:42:44;;;;;;;3.78;1.20;;;;;;;33.17;19.75;91754.16;5030977;28;20041;-72
2022/05/20 11:45:10;;;;;;;1.30;0.80;;;;;;;32.83;20.23;91740.75;5031105;28;20037;-71
2022/05/20 11:47:35;;;;;;;5.10;1.50;;;;;;;32.20;20.39;91736.13;5031127;28;20091;-70
2022/05/20 11:50:13;;;;;;;14.23;2.22;;;;;;;32.00;21.20;91740.81;5031070;28;20069;-71
2022/05/20 11:53:01;;;;;;;1.23;1.13;;;;;;;30.11;22.79;91741.66;5030964;28;20036;-71
2022/05/20 11:55:33;;;;;;;2.25;1.35;;;;;;;29.96;23.02;91737.50;5030855;28;20037;-72
2022/05/20 11:58:11;;;;;;;1.13;1.00;;;;;;;31.76;21.72;91720.84;5030865;28;20038;-72
2022/05/20 12:00:42;;;;;;;1.05;0.80;;;;;;;32.55;22.15;91728.34;5030920;28;20459;-72
2022/05/20 12:03:20;;;;;;;0.73;0.73;;;;;;;32.21;21.10;91718.38;5030802;28;20068;-72
2022/05/20 12:05:49;;;;;;;5.88;1.25;;;;;;;31.49;22.09;91718.13;5030874;28;20118;-73
2022/05/20 12:08:40;;;;;;;2.88;1.52;;;;;;;29.98;24.84;91713.19;5030855;28;20033;-72
2022/05/20 12:11:40;;;;;;;1.17;1.00;;;;;;;29.51;24.50;91712.91;5030886;28;20037;-72
2022/05/20 12:14:13;;;;;;;12.40;2.95;;;;;;;29.59;24.41;91715.56;4980604;28;20525;-72
2022/05/20 12:16:59;;;;;;;1.75;0.90;;;;;;;30.02;24.26;91718.63;5034716;28;20041;-66
2022/05/20 12:25:36;;;;;;;3.33;0.90;;;;;;;30.55;25.98;91704.25;5034642;28;20044;-68
2022/05/20 12:28:22;;;;;;;1.27;1.13;;;;;;;30.07;24.68;91699.78;5034218;28;20045;-67
2022/05/20 12:31:02;;;;;;;0.90;0.90;;;;;;;28.86;26.04;91692.69;5016441;28;20055;-67
2022/05/20 12:33:48;;;;;;;1.50;1.00;;;;;;;29.17;24.76;91698.31;5034119;28;20423;-65
2022/05/20 12:36:21;;;;;;;3.97;1.27;;;;;;;28.99;25.82;91670.28;5034290;28;20033;-66
2022/05/20 12:38:47;;;;;;;1.17;1.08;;;;;;;26.46;28.07;91688.28;5034102;28;20034;-65
2022/05/20 12:41:39;;;;;;;4.32;1.13;;;;;;;26.92;26.86;91679.34;5033883;28;20033;-66